sensor_id;sensor_type;location;lat;lon;timestamp;temperature;humidity
14769;DHT22;7476;49.404;11.152;2023-11-19T00:01:32;5.50;99.90
14769;DHT22;7476;49.404;11.152;2023-11-19T00:03:58;5.60;99.90
14769;DHT22;7476;49.404;11.152;2023-11-19T00:06:26;5.60;99.90
14769;DHT22;7476;49.404;11.152;2023-11-19T00:08:53;5.60;99.90
14769;DHT22;7476;49.404;11.152;2023-11-19T00:11:20;5.50;99.90
14769;DHT22;7476;49.404;11.152;2023-11-19T00:13:47;5.60;99.90
14769;DHT22;7476;49.404;11.152;2023-11-19T00:16:13;5.60;99.90
14769;DHT22;7476;49.404;11.152;2023-11-19T00:18:41;5.60;99.90
14769;DHT22;7476;49.404;11.152;2023-11-19T00:21:08;5.60;99.90
14769;DHT22;7476;49.404;11.152;2023-11-19T00:23:37;5.60;99.90
14769;DHT22;7476;49.404;11.152;2023-11-19T00:26:04;5.60;99.90
14769;DHT22;7476;49.404;11.152;2023-11-19T00:28:31;5.60;99.90
14769;DHT22;7476;49.404;11.152;2023-11-19T00:30:58;5.60;99.90
14769;DHT22;7476;49.404;11.152;2023-11-19T00:33:25;5.60;99.90
14769;DHT22;7476;49.404;11.152;2023-11-19T00:35:51;5.60;99.90
14769;DHT22;7476;49.404;11.152;2023-11-19T00:38:18;5.70;99.90
14769;DHT22;7476;49.404;11.152;2023-11-19T00:40:46;5.70;99.90
14769;DHT22;7476;49.404;11.152;2023-11-19T00:43:13;5.70;99.90
14769;DHT22;7476;49.404;11.152;2023-11-19T00:45:39;5.70;99.90
14769;DHT22;7476;49.404;11.152;2023-11-19T00:48:06;5.70;99.90
14769;DHT22;7476;49.404;11.152;2023-11-19T00:50:33;5.70;99.90
14769;DHT22;7476;49.404;11.152;2023-11-19T00:53:00;5.80;99.90
14769;DHT22;7476;49.404;11.152;2023-11-19T00:55:26;5.80;99.90
14769;DHT22;7476;49.404;11.152;2023-11-19T00:57:54;5.80;99.90
14769;DHT22;7476;49.404;11.152;2023-11-19T01:00:21;5.80;99.90
14769;DHT22;7476;49.404;11.152;2023-11-19T01:02:52;5.80;99.90
14769;DHT22;7476;49.404;11.152;2023-11-19T01:05:19;5.80;99.90
14769;DHT22;7476;49.404;11.152;2023-11-19T01:07:47;5.80;99.90
14769;DHT22;7476;49.404;11.152;2023-11-19T01:10:14;5.80;99.90
14769;DHT22;7476;49.404;11.152;2023-11-19T01:12:42;5.80;99.90
14769;DHT22;7476;49.404;11.152;2023-11-19T01:15:10;5.80;99.90
14769;DHT22;7476;49.404;11.152;2023-11-19T01:17:37;5.90;99.90
14769;DHT22;7476;49.404;11.152;2023-11-19T01:20:05;5.90;99.90
14769;DHT22;7476;49.404;11.152;2023-11-19T01:22:32;5.90;99.90
14769;DHT22;7476;49.404;11.152;2023-11-19T01:24:59;5.90;99.90
14769;DHT22;7476;49.404;11.152;2023-11-19T01:27:25;5.90;99.90
14769;DHT22;7476;49.404;11.152;2023-11-19T01:29:52;5.90;99.90
14769;DHT22;7476;49.404;11.152;2023-11-19T01:32:20;5.90;99.90
14769;DHT22;7476;49.404;11.152;2023-11-19T01:34:47;5.90;99.90
14769;DHT22;7476;49.404;11.152;2023-11-19T01:37:13;5.90;99.90
14769;DHT22;7476;49.404;11.152;2023-11-19T01:39:43;5.90;99.90
14769;DHT22;7476;49.404;11.152;2023-11-19T01:42:09;5.90;99.90
14769;DHT22;7476;49.404;11.152;2023-11-19T01:44:37;5.90;99.90
14769;DHT22;7476;49.404;11.152;2023-11-19T01:47:04;5.90;99.90
14769;DHT22;7476;49.404;11.152;2023-11-19T01:49:32;5.90;99.90
14769;DHT22;7476;49.404;11.152;2023-11-19T01:51:59;5.90;99.90
14769;DHT22;7476;49.404;11.152;2023-11-19T01:54:26;6.00;99.90
14769;DHT22;7476;49.404;11.152;2023-11-19T01:56:56;6.00;99.90
14769;DHT22;7476;49.404;11.152;2023-11-19T01:59:24;6.00;99.90
14769;DHT22;7476;49.404;11.152;2023-11-19T02:01:52;6.00;99.90
14769;DHT22;7476;49.404;11.152;2023-11-19T02:04:20;6.00;99.90
14769;DHT22;7476;49.404;11.152;2023-11-19T02:06:51;6.00;99.90
14769;DHT22;7476;49.404;11.152;2023-11-19T02:09:20;6.00;99.90
14769;DHT22;7476;49.404;11.152;2023-11-19T02:11:47;6.00;99.90
14769;DHT22;7476;49.404;11.152;2023-11-19T02:14:17;6.10;99.90
14769;DHT22;7476;49.404;11.152;2023-11-19T02:16:43;6.10;99.90
14769;DHT22;7476;49.404;11.152;2023-11-19T02:19:10;6.00;99.90
14769;DHT22;7476;49.404;11.152;2023-11-19T02:21:37;6.10;99.90
14769;DHT22;7476;49.404;11.152;2023-11-19T02:24:08;6.10;99.90
14769;DHT22;7476;49.404;11.152;2023-11-19T02:26:40;6.10;99.90
14769;DHT22;7476;49.404;11.152;2023-11-19T02:29:09;6.10;99.90
14769;DHT22;7476;49.404;11.152;2023-11-19T02:31:35;6.10;99.90
14769;DHT22;7476;49.404;11.152;2023-11-19T02:34:02;6.10;99.90
14769;DHT22;7476;49.404;11.152;2023-11-19T02:36:29;6.10;99.90
14769;DHT22;7476;49.404;11.152;2023-11-19T02:38:57;6.10;99.90
14769;DHT22;7476;49.404;11.152;2023-11-19T02:41:24;6.10;99.90
14769;DHT22;7476;49.404;11.152;2023-11-19T02:43:50;6.10;99.90
14769;DHT22;7476;49.404;11.152;2023-11-19T02:46:19;6.10;99.90
14769;DHT22;7476;49.404;11.152;2023-11-19T02:48:45;6.20;99.90
14769;DHT22;7476;49.404;11.152;2023-11-19T02:51:12;6.20;99.90
14769;DHT22;7476;49.404;11.152;2023-11-19T02:53:39;6.20;99.90
14769;DHT22;7476;49.404;11.152;2023-11-19T02:56:06;6.20;99.90
14769;DHT22;7476;49.404;11.152;2023-11-19T02:58:43;6.20;99.90
14769;DHT22;7476;49.404;11.152;2023-11-19T03:01:10;6.20;99.90
14769;DHT22;7476;49.404;11.152;2023-11-19T03:03:46;6.20;99.90
14769;DHT22;7476;49.404;11.152;2023-11-19T03:06:14;6.20;99.90
14769;DHT22;7476;49.404;11.152;2023-11-19T03:08:41;6.20;99.90
14769;DHT22;7476;49.404;11.152;2023-11-19T03:11:08;6.20;99.90
14769;DHT22;7476;49.404;11.152;2023-11-19T03:13:35;6.30;99.90
14769;DHT22;7476;49.404;11.152;2023-11-19T03:16:01;6.30;99.90
14769;DHT22;7476;49.404;11.152;2023-11-19T03:18:28;6.30;99.90
14769;DHT22;7476;49.404;11.152;2023-11-19T03:20:56;6.30;99.90
14769;DHT22;7476;49.404;11.152;2023-11-19T03:23:24;6.30;99.90
14769;DHT22;7476;49.404;11.152;2023-11-19T03:25:53;6.30;99.90
14769;DHT22;7476;49.404;11.152;2023-11-19T03:28:19;6.30;99.90
14769;DHT22;7476;49.404;11.152;2023-11-19T03:30:46;6.30;99.90
14769;DHT22;7476;49.404;11.152;2023-11-19T03:33:13;6.30;99.90
14769;DHT22;7476;49.404;11.152;2023-11-19T03:35:39;6.40;99.90
14769;DHT22;7476;49.404;11.152;2023-11-19T03:38:08;6.40;99.90
14769;DHT22;7476;49.404;11.152;2023-11-19T03:40:35;6.40;99.90
14769;DHT22;7476;49.404;11.152;2023-11-19T03:43:03;6.40;99.90
14769;DHT22;7476;49.404;11.152;2023-11-19T03:45:30;6.50;99.90
14769;DHT22;7476;49.404;11.152;2023-11-19T03:47:57;6.50;99.90
14769;DHT22;7476;49.404;11.152;2023-11-19T03:50:23;6.50;99.90
14769;DHT22;7476;49.404;11.152;2023-11-19T03:52:50;6.60;99.90
14769;DHT22;7476;49.404;11.152;2023-11-19T03:55:19;6.60;99.90
14769;DHT22;7476;49.404;11.152;2023-11-19T03:57:45;6.60;99.90
14769;DHT22;7476;49.404;11.152;2023-11-19T04:00:14;6.60;99.90
14769;DHT22;7476;49.404;11.152;2023-11-19T04:02:41;6.60;99.90
14769;DHT22;7476;49.404;11.152;2023-11-19T04:05:08;6.60;99.90
14769;DHT22;7476;49.404;11.152;2023-11-19T04:07:35;6.60;99.90
14769;DHT22;7476;49.404;11.152;2023-11-19T04:10:03;6.60;99.90
14769;DHT22;7476;49.404;11.152;2023-11-19T04:12:31;6.50;99.90
14769;DHT22;7476;49.404;11.152;2023-11-19T04:14:57;6.60;99.90
14769;DHT22;7476;49.404;11.152;2023-11-19T04:17:24;6.60;99.90
14769;DHT22;7476;49.404;11.152;2023-11-19T04:19:51;6.70;99.90
14769;DHT22;7476;49.404;11.152;2023-11-19T04:22:17;6.70;99.90
14769;DHT22;7476;49.404;11.152;2023-11-19T04:24:45;6.70;99.90
14769;DHT22;7476;49.404;11.152;2023-11-19T04:27:11;6.80;99.90
14769;DHT22;7476;49.404;11.152;2023-11-19T04:29:39;6.80;99.90
14769;DHT22;7476;49.404;11.152;2023-11-19T04:32:06;6.80;99.90
14769;DHT22;7476;49.404;11.152;2023-11-19T04:34:33;6.80;99.90
14769;DHT22;7476;49.404;11.152;2023-11-19T04:37:00;6.80;99.90
14769;DHT22;7476;49.404;11.152;2023-11-19T04:39:28;6.80;99.90
14769;DHT22;7476;49.404;11.152;2023-11-19T04:41:55;6.80;99.90
14769;DHT22;7476;49.404;11.152;2023-11-19T04:44:22;6.90;99.90
14769;DHT22;7476;49.404;11.152;2023-11-19T04:46:50;6.90;99.90
14769;DHT22;7476;49.404;11.152;2023-11-19T04:49:16;6.90;99.90
14769;DHT22;7476;49.404;11.152;2023-11-19T04:51:45;7.00;99.90
14769;DHT22;7476;49.404;11.152;2023-11-19T04:54:12;7.00;99.90
14769;DHT22;7476;49.404;11.152;2023-11-19T04:56:39;7.10;99.90
14769;DHT22;7476;49.404;11.152;2023-11-19T04:59:06;7.10;99.90
14769;DHT22;7476;49.404;11.152;2023-11-19T05:01:34;7.10;99.90
14769;DHT22;7476;49.404;11.152;2023-11-19T05:04:02;7.20;99.90
14769;DHT22;7476;49.404;11.152;2023-11-19T05:06:29;7.20;99.90
14769;DHT22;7476;49.404;11.152;2023-11-19T05:08:57;7.20;99.90
14769;DHT22;7476;49.404;11.152;2023-11-19T05:11:26;7.30;99.90
14769;DHT22;7476;49.404;11.152;2023-11-19T05:13:53;7.20;99.90
14769;DHT22;7476;49.404;11.152;2023-11-19T05:16:20;7.30;99.90
14769;DHT22;7476;49.404;11.152;2023-11-19T05:18:46;7.30;99.90
14769;DHT22;7476;49.404;11.152;2023-11-19T05:21:15;7.30;99.90
14769;DHT22;7476;49.404;11.152;2023-11-19T05:23:42;7.30;99.90
14769;DHT22;7476;49.404;11.152;2023-11-19T05:26:16;7.30;99.90
14769;DHT22;7476;49.404;11.152;2023-11-19T05:28:43;7.40;99.90
14769;DHT22;7476;49.404;11.152;2023-11-19T05:31:10;7.40;99.90
14769;DHT22;7476;49.404;11.152;2023-11-19T05:33:36;7.40;99.90
14769;DHT22;7476;49.404;11.152;2023-11-19T05:36:04;7.40;99.90
14769;DHT22;7476;49.404;11.152;2023-11-19T05:38:32;7.50;99.90
14769;DHT22;7476;49.404;11.152;2023-11-19T05:40:58;7.50;99.90
14769;DHT22;7476;49.404;11.152;2023-11-19T05:43:25;7.50;99.90
14769;DHT22;7476;49.404;11.152;2023-11-19T05:45:52;7.60;99.90
14769;DHT22;7476;49.404;11.152;2023-11-19T05:48:18;7.60;99.90
14769;DHT22;7476;49.404;11.152;2023-11-19T05:50:45;7.70;99.90
14769;DHT22;7476;49.404;11.152;2023-11-19T05:53:12;7.70;99.90
14769;DHT22;7476;49.404;11.152;2023-11-19T05:55:41;7.70;99.90
14769;DHT22;7476;49.404;11.152;2023-11-19T05:58:14;7.70;99.90
14769;DHT22;7476;49.404;11.152;2023-11-19T06:00:41;7.80;99.90
14769;DHT22;7476;49.404;11.152;2023-11-19T06:03:08;7.80;99.90
14769;DHT22;7476;49.404;11.152;2023-11-19T06:05:34;7.80;99.90
14769;DHT22;7476;49.404;11.152;2023-11-19T06:08:01;7.90;99.90
14769;DHT22;7476;49.404;11.152;2023-11-19T06:10:28;7.80;99.90
14769;DHT22;7476;49.404;11.152;2023-11-19T06:12:58;7.90;99.90
14769;DHT22;7476;49.404;11.152;2023-11-19T06:15:25;8.00;99.90
14769;DHT22;7476;49.404;11.152;2023-11-19T06:17:51;7.90;99.90
14769;DHT22;7476;49.404;11.152;2023-11-19T06:20:18;8.00;99.90
14769;DHT22;7476;49.404;11.152;2023-11-19T06:22:45;8.00;99.90
14769;DHT22;7476;49.404;11.152;2023-11-19T06:25:12;8.00;99.90
14769;DHT22;7476;49.404;11.152;2023-11-19T06:27:40;8.10;99.90
14769;DHT22;7476;49.404;11.152;2023-11-19T06:30:09;8.20;99.90
14769;DHT22;7476;49.404;11.152;2023-11-19T06:32:36;8.20;99.90
14769;DHT22;7476;49.404;11.152;2023-11-19T06:35:03;8.20;99.90
14769;DHT22;7476;49.404;11.152;2023-11-19T06:37:30;8.20;99.90
14769;DHT22;7476;49.404;11.152;2023-11-19T06:39:57;8.30;99.90
14769;DHT22;7476;49.404;11.152;2023-11-19T06:42:24;8.30;99.90
14769;DHT22;7476;49.404;11.152;2023-11-19T06:44:51;8.40;99.90
14769;DHT22;7476;49.404;11.152;2023-11-19T06:47:19;8.40;99.90
14769;DHT22;7476;49.404;11.152;2023-11-19T06:49:46;8.50;99.90
14769;DHT22;7476;49.404;11.152;2023-11-19T06:52:12;8.60;99.90
14769;DHT22;7476;49.404;11.152;2023-11-19T06:54:39;8.60;99.90
14769;DHT22;7476;49.404;11.152;2023-11-19T06:57:06;8.60;99.90
14769;DHT22;7476;49.404;11.152;2023-11-19T06:59:34;8.60;99.90
14769;DHT22;7476;49.404;11.152;2023-11-19T07:02:01;8.70;99.90
14769;DHT22;7476;49.404;11.152;2023-11-19T07:04:29;8.70;99.90
14769;DHT22;7476;49.404;11.152;2023-11-19T07:06:56;8.70;99.90
14769;DHT22;7476;49.404;11.152;2023-11-19T07:09:23;8.80;99.90
14769;DHT22;7476;49.404;11.152;2023-11-19T07:11:49;8.80;99.90
14769;DHT22;7476;49.404;11.152;2023-11-19T07:14:17;8.80;99.90
14769;DHT22;7476;49.404;11.152;2023-11-19T07:16:45;8.80;99.90
14769;DHT22;7476;49.404;11.152;2023-11-19T07:19:12;8.90;99.90
14769;DHT22;7476;49.404;11.152;2023-11-19T07:21:42;8.90;99.90
14769;DHT22;7476;49.404;11.152;2023-11-19T07:24:10;9.00;99.90
14769;DHT22;7476;49.404;11.152;2023-11-19T07:26:42;9.00;99.90
14769;DHT22;7476;49.404;11.152;2023-11-19T07:29:09;9.10;99.90
14769;DHT22;7476;49.404;11.152;2023-11-19T07:31:36;9.20;99.90
14769;DHT22;7476;49.404;11.152;2023-11-19T07:34:03;9.30;99.90
14769;DHT22;7476;49.404;11.152;2023-11-19T07:36:30;9.30;99.90
14769;DHT22;7476;49.404;11.152;2023-11-19T07:38:58;9.30;99.90
14769;DHT22;7476;49.404;11.152;2023-11-19T07:41:25;9.30;99.90
14769;DHT22;7476;49.404;11.152;2023-11-19T07:43:52;9.40;99.90
14769;DHT22;7476;49.404;11.152;2023-11-19T07:46:19;9.40;99.90
14769;DHT22;7476;49.404;11.152;2023-11-19T07:48:46;9.50;99.90
14769;DHT22;7476;49.404;11.152;2023-11-19T07:51:13;9.60;99.90
14769;DHT22;7476;49.404;11.152;2023-11-19T07:53:40;9.60;99.90
14769;DHT22;7476;49.404;11.152;2023-11-19T07:56:09;9.70;99.90
14769;DHT22;7476;49.404;11.152;2023-11-19T07:58:35;9.80;99.90
14769;DHT22;7476;49.404;11.152;2023-11-19T08:01:03;9.90;99.90
14769;DHT22;7476;49.404;11.152;2023-11-19T08:03:30;9.90;99.90
14769;DHT22;7476;49.404;11.152;2023-11-19T08:05:56;9.90;99.90
14769;DHT22;7476;49.404;11.152;2023-11-19T08:08:23;9.90;99.90
14769;DHT22;7476;49.404;11.152;2023-11-19T08:10:50;10.00;99.90
14769;DHT22;7476;49.404;11.152;2023-11-19T08:13:19;10.10;99.90
14769;DHT22;7476;49.404;11.152;2023-11-19T08:15:46;10.10;99.90
14769;DHT22;7476;49.404;11.152;2023-11-19T08:18:13;10.20;99.90
14769;DHT22;7476;49.404;11.152;2023-11-19T08:20:39;10.20;99.90
14769;DHT22;7476;49.404;11.152;2023-11-19T08:23:06;10.30;99.90
14769;DHT22;7476;49.404;11.152;2023-11-19T08:25:33;10.40;99.90
14769;DHT22;7476;49.404;11.152;2023-11-19T08:28:00;10.40;99.90
14769;DHT22;7476;49.404;11.152;2023-11-19T08:30:30;10.50;99.90
14769;DHT22;7476;49.404;11.152;2023-11-19T08:32:56;10.50;99.90
14769;DHT22;7476;49.404;11.152;2023-11-19T08:35:24;10.50;99.90
14769;DHT22;7476;49.404;11.152;2023-11-19T08:37:50;10.50;99.90
14769;DHT22;7476;49.404;11.152;2023-11-19T08:40:17;10.60;99.90
14769;DHT22;7476;49.404;11.152;2023-11-19T08:42:45;10.70;99.90
14769;DHT22;7476;49.404;11.152;2023-11-19T08:45:12;10.80;99.90
14769;DHT22;7476;49.404;11.152;2023-11-19T08:47:40;10.80;99.90
14769;DHT22;7476;49.404;11.152;2023-11-19T08:50:07;10.90;99.90
14769;DHT22;7476;49.404;11.152;2023-11-19T08:52:34;11.00;99.90
14769;DHT22;7476;49.404;11.152;2023-11-19T08:55:01;11.10;99.90
14769;DHT22;7476;49.404;11.152;2023-11-19T08:57:28;11.20;99.90
14769;DHT22;7476;49.404;11.152;2023-11-19T08:59:55;11.20;99.90
14769;DHT22;7476;49.404;11.152;2023-11-19T09:02:21;11.30;99.90
14769;DHT22;7476;49.404;11.152;2023-11-19T09:04:50;11.30;99.90
14769;DHT22;7476;49.404;11.152;2023-11-19T09:07:17;11.50;99.90
14769;DHT22;7476;49.404;11.152;2023-11-19T09:09:43;11.60;99.90
14769;DHT22;7476;49.404;11.152;2023-11-19T09:12:10;11.70;99.90
14769;DHT22;7476;49.404;11.152;2023-11-19T09:14:37;11.80;99.90
14769;DHT22;7476;49.404;11.152;2023-11-19T09:17:04;11.90;99.90
14769;DHT22;7476;49.404;11.152;2023-11-19T09:19:32;12.10;99.90
14769;DHT22;7476;49.404;11.152;2023-11-19T09:22:02;12.40;99.90
14769;DHT22;7476;49.404;11.152;2023-11-19T09:24:29;12.50;99.90
14769;DHT22;7476;49.404;11.152;2023-11-19T09:26:56;12.50;99.90
14769;DHT22;7476;49.404;11.152;2023-11-19T09:29:23;12.50;99.90
14769;DHT22;7476;49.404;11.152;2023-11-19T09:31:50;12.50;99.90
14769;DHT22;7476;49.404;11.152;2023-11-19T09:34:17;12.60;99.90
14769;DHT22;7476;49.404;11.152;2023-11-19T09:36:43;12.70;99.90
14769;DHT22;7476;49.404;11.152;2023-11-19T09:39:12;12.70;99.90
14769;DHT22;7476;49.404;11.152;2023-11-19T09:41:40;12.80;99.90
14769;DHT22;7476;49.404;11.152;2023-11-19T09:44:07;12.90;99.90
14769;DHT22;7476;49.404;11.152;2023-11-19T09:46:35;13.10;99.90
14769;DHT22;7476;49.404;11.152;2023-11-19T09:49:02;13.40;99.90
14769;DHT22;7476;49.404;11.152;2023-11-19T09:51:30;13.40;99.90
14769;DHT22;7476;49.404;11.152;2023-11-19T09:53:57;13.40;99.90
14769;DHT22;7476;49.404;11.152;2023-11-19T09:56:25;13.30;99.90
14769;DHT22;7476;49.404;11.152;2023-11-19T09:58:53;13.30;99.90
14769;DHT22;7476;49.404;11.152;2023-11-19T10:01:20;13.30;99.90
14769;DHT22;7476;49.404;11.152;2023-11-19T10:03:47;13.30;99.90
14769;DHT22;7476;49.404;11.152;2023-11-19T10:06:14;13.30;99.90
14769;DHT22;7476;49.404;11.152;2023-11-19T10:08:42;13.30;99.90
14769;DHT22;7476;49.404;11.152;2023-11-19T10:11:09;13.30;99.90
14769;DHT22;7476;49.404;11.152;2023-11-19T10:13:39;13.30;99.90
14769;DHT22;7476;49.404;11.152;2023-11-19T10:16:08;13.30;99.90
14769;DHT22;7476;49.404;11.152;2023-11-19T10:18:37;13.40;99.90
14769;DHT22;7476;49.404;11.152;2023-11-19T10:21:04;13.40;99.90
14769;DHT22;7476;49.404;11.152;2023-11-19T10:23:48;13.40;99.90
14769;DHT22;7476;49.404;11.152;2023-11-19T10:26:15;13.50;90.80
14769;DHT22;7476;49.404;11.152;2023-11-19T10:28:43;13.40;99.90
14769;DHT22;7476;49.404;11.152;2023-11-19T10:31:12;13.40;99.90
14769;DHT22;7476;49.404;11.152;2023-11-19T10:33:39;13.40;99.90
14769;DHT22;7476;49.404;11.152;2023-11-19T10:36:06;13.30;99.90
14769;DHT22;7476;49.404;11.152;2023-11-19T10:38:33;13.20;99.90
14769;DHT22;7476;49.404;11.152;2023-11-19T10:41:01;13.00;99.90
14769;DHT22;7476;49.404;11.152;2023-11-19T10:43:27;12.70;99.90
14769;DHT22;7476;49.404;11.152;2023-11-19T10:46:09;12.50;99.90
14769;DHT22;7476;49.404;11.152;2023-11-19T10:48:36;12.40;99.90
14769;DHT22;7476;49.404;11.152;2023-11-19T10:51:05;12.40;99.90
14769;DHT22;7476;49.404;11.152;2023-11-19T10:53:35;12.60;99.90
14769;DHT22;7476;49.404;11.152;2023-11-19T10:56:06;12.90;99.90
14769;DHT22;7476;49.404;11.152;2023-11-19T10:58:35;13.20;99.90
14769;DHT22;7476;49.404;11.152;2023-11-19T11:01:09;13.30;99.90
14769;DHT22;7476;49.404;11.152;2023-11-19T11:03:39;13.70;99.90
14769;DHT22;7476;49.404;11.152;2023-11-19T11:06:06;14.10;99.90
14769;DHT22;7476;49.404;11.152;2023-11-19T11:08:36;14.60;99.90
14769;DHT22;7476;49.404;11.152;2023-11-19T11:11:05;14.70;1.00
14769;DHT22;7476;49.404;11.152;2023-11-19T11:13:33;14.70;1.00
14769;DHT22;7476;49.404;11.152;2023-11-19T11:16:00;14.60;1.00
14769;DHT22;7476;49.404;11.152;2023-11-19T11:18:28;14.40;1.00
14769;DHT22;7476;49.404;11.152;2023-11-19T11:20:58;14.20;1.00
14769;DHT22;7476;49.404;11.152;2023-11-19T11:26:46;13.90;1.00
14769;DHT22;7476;49.404;11.152;2023-11-19T11:29:24;13.80;1.00
14769;DHT22;7476;49.404;11.152;2023-11-19T11:32:00;13.90;1.00
14769;DHT22;7476;49.404;11.152;2023-11-19T11:34:58;14.00;1.00
14769;DHT22;7476;49.404;11.152;2023-11-19T11:37:32;14.00;1.00
14769;DHT22;7476;49.404;11.152;2023-11-19T11:40:01;14.00;1.00
14769;DHT22;7476;49.404;11.152;2023-11-19T11:42:34;13.90;1.00
14769;DHT22;7476;49.404;11.152;2023-11-19T11:45:03;13.90;1.00
14769;DHT22;7476;49.404;11.152;2023-11-19T11:50:55;14.30;1.00
14769;DHT22;7476;49.404;11.152;2023-11-19T11:53:23;14.30;1.00
14769;DHT22;7476;49.404;11.152;2023-11-19T11:55:57;14.30;1.00
14769;DHT22;7476;49.404;11.152;2023-11-19T11:58:31;14.40;1.00
14769;DHT22;7476;49.404;11.152;2023-11-19T12:00:58;14.30;1.00
14769;DHT22;7476;49.404;11.152;2023-11-19T12:03:28;14.20;1.00
14769;DHT22;7476;49.404;11.152;2023-11-19T12:05:57;14.00;1.00
14769;DHT22;7476;49.404;11.152;2023-11-19T12:08:26;14.00;1.00
14769;DHT22;7476;49.404;11.152;2023-11-19T12:10:54;13.90;1.00
14769;DHT22;7476;49.404;11.152;2023-11-19T12:13:23;13.90;1.00
14769;DHT22;7476;49.404;11.152;2023-11-19T12:16:09;13.80;1.00
14769;DHT22;7476;49.404;11.152;2023-11-19T12:18:39;13.80;1.00
14769;DHT22;7476;49.404;11.152;2023-11-19T12:21:08;13.80;1.00
14769;DHT22;7476;49.404;11.152;2023-11-19T12:23:44;13.90;1.00
14769;DHT22;7476;49.404;11.152;2023-11-19T12:26:35;14.00;1.00
14769;DHT22;7476;49.404;11.152;2023-11-19T12:29:02;14.00;1.00
14769;DHT22;7476;49.404;11.152;2023-11-19T12:31:33;14.00;1.00
14769;DHT22;7476;49.404;11.152;2023-11-19T12:34:09;14.10;1.00
14769;DHT22;7476;49.404;11.152;2023-11-19T12:36:39;14.10;1.00
14769;DHT22;7476;49.404;11.152;2023-11-19T12:39:07;14.20;1.00
14769;DHT22;7476;49.404;11.152;2023-11-19T12:41:51;14.70;1.00
14769;DHT22;7476;49.404;11.152;2023-11-19T12:44:18;15.00;1.00
14769;DHT22;7476;49.404;11.152;2023-11-19T12:46:44;15.00;99.90
14769;DHT22;7476;49.404;11.152;2023-11-19T12:49:11;14.90;99.90
14769;DHT22;7476;49.404;11.152;2023-11-19T12:51:39;15.00;93.70
14769;DHT22;7476;49.404;11.152;2023-11-19T12:54:06;15.00;99.90
14769;DHT22;7476;49.404;11.152;2023-11-19T12:56:33;14.80;1.00
14769;DHT22;7476;49.404;11.152;2023-11-19T12:59:10;14.70;1.00
14769;DHT22;7476;49.404;11.152;2023-11-19T13:01:37;14.60;1.00
14769;DHT22;7476;49.404;11.152;2023-11-19T13:04:15;14.50;1.00
14769;DHT22;7476;49.404;11.152;2023-11-19T13:06:46;14.50;1.00
14769;DHT22;7476;49.404;11.152;2023-11-19T13:09:22;14.70;99.90
14769;DHT22;7476;49.404;11.152;2023-11-19T13:11:49;15.40;6.60
14769;DHT22;7476;49.404;11.152;2023-11-19T13:14:16;16.50;1.00
14769;DHT22;7476;49.404;11.152;2023-11-19T13:16:43;17.00;1.00
14769;DHT22;7476;49.404;11.152;2023-11-19T13:19:11;16.90;99.90
14769;DHT22;7476;49.404;11.152;2023-11-19T13:21:37;16.20;1.00
14769;DHT22;7476;49.404;11.152;2023-11-19T13:24:06;16.60;99.90
14769;DHT22;7476;49.404;11.152;2023-11-19T13:26:33;17.40;99.90
14769;DHT22;7476;49.404;11.152;2023-11-19T13:29:00;17.40;92.70
14769;DHT22;7476;49.404;11.152;2023-11-19T13:31:26;16.60;1.00
14769;DHT22;7476;49.404;11.152;2023-11-19T13:33:53;16.10;99.90
14769;DHT22;7476;49.404;11.152;2023-11-19T13:36:20;16.20;99.90
14769;DHT22;7476;49.404;11.152;2023-11-19T13:38:47;16.90;1.00
14769;DHT22;7476;49.404;11.152;2023-11-19T13:41:15;17.20;1.00
14769;DHT22;7476;49.404;11.152;2023-11-19T13:43:42;17.80;1.00
14769;DHT22;7476;49.404;11.152;2023-11-19T13:46:09;18.30;99.90
14769;DHT22;7476;49.404;11.152;2023-11-19T13:48:36;18.00;99.90
14769;DHT22;7476;49.404;11.152;2023-11-19T13:51:03;18.00;1.00
14769;DHT22;7476;49.404;11.152;2023-11-19T13:53:29;17.90;29.00
14769;DHT22;7476;49.404;11.152;2023-11-19T13:55:56;16.90;99.90
14769;DHT22;7476;49.404;11.152;2023-11-19T13:58:24;16.10;99.90
14769;DHT22;7476;49.404;11.152;2023-11-19T14:00:51;15.70;1.00
14769;DHT22;7476;49.404;11.152;2023-11-19T14:03:18;15.30;1.00
14769;DHT22;7476;49.404;11.152;2023-11-19T14:05:45;15.10;99.90
14769;DHT22;7476;49.404;11.152;2023-11-19T14:08:12;14.80;1.00
14769;DHT22;7476;49.404;11.152;2023-11-19T14:10:39;14.50;1.00
14769;DHT22;7476;49.404;11.152;2023-11-19T14:13:06;14.40;1.00
14769;DHT22;7476;49.404;11.152;2023-11-19T14:15:35;15.00;1.00
14769;DHT22;7476;49.404;11.152;2023-11-19T14:18:02;15.90;1.00
14769;DHT22;7476;49.404;11.152;2023-11-19T14:20:29;16.50;1.00
14769;DHT22;7476;49.404;11.152;2023-11-19T14:22:55;16.30;1.00
14769;DHT22;7476;49.404;11.152;2023-11-19T14:25:22;16.50;1.00
14769;DHT22;7476;49.404;11.152;2023-11-19T14:27:49;16.60;99.90
14769;DHT22;7476;49.404;11.152;2023-11-19T14:30:16;16.60;99.90
14769;DHT22;7476;49.404;11.152;2023-11-19T14:32:45;16.70;99.90
14769;DHT22;7476;49.404;11.152;2023-11-19T14:35:13;17.10;99.90
14769;DHT22;7476;49.404;11.152;2023-11-19T14:37:40;16.80;99.90
14769;DHT22;7476;49.404;11.152;2023-11-19T14:40:08;16.60;99.90
14769;DHT22;7476;49.404;11.152;2023-11-19T14:42:35;17.00;99.90
14769;DHT22;7476;49.404;11.152;2023-11-19T14:45:02;17.20;99.90
14769;DHT22;7476;49.404;11.152;2023-11-19T14:47:30;17.70;99.90
14769;DHT22;7476;49.404;11.152;2023-11-19T14:49:58;17.40;99.90
14769;DHT22;7476;49.404;11.152;2023-11-19T14:52:25;16.70;99.90
14769;DHT22;7476;49.404;11.152;2023-11-19T14:54:51;16.30;99.90
14769;DHT22;7476;49.404;11.152;2023-11-19T14:57:19;15.90;99.90
14769;DHT22;7476;49.404;11.152;2023-11-19T14:59:46;15.50;99.90
14769;DHT22;7476;49.404;11.152;2023-11-19T15:02:13;14.90;1.00
14769;DHT22;7476;49.404;11.152;2023-11-19T15:04:38;14.30;99.90
14769;DHT22;7476;49.404;11.152;2023-11-19T15:07:09;14.00;99.90
14769;DHT22;7476;49.404;11.152;2023-11-19T15:09:35;13.70;1.00
14769;DHT22;7476;49.404;11.152;2023-11-19T15:12:03;13.50;1.00
14769;DHT22;7476;49.404;11.152;2023-11-19T15:14:30;13.40;1.00
14769;DHT22;7476;49.404;11.152;2023-11-19T15:16:57;13.30;20.50
14769;DHT22;7476;49.404;11.152;2023-11-19T15:19:23;13.20;99.90
14769;DHT22;7476;49.404;11.152;2023-11-19T15:21:50;13.20;1.00
14769;DHT22;7476;49.404;11.152;2023-11-19T15:24:18;13.00;1.00
14769;DHT22;7476;49.404;11.152;2023-11-19T15:26:45;12.90;1.00
14769;DHT22;7476;49.404;11.152;2023-11-19T15:29:11;12.90;99.90
14769;DHT22;7476;49.404;11.152;2023-11-19T15:31:39;12.80;1.00
14769;DHT22;7476;49.404;11.152;2023-11-19T15:34:06;12.70;1.00
14769;DHT22;7476;49.404;11.152;2023-11-19T15:36:32;12.70;1.00
14769;DHT22;7476;49.404;11.152;2023-11-19T15:39:01;12.80;1.00
14769;DHT22;7476;49.404;11.152;2023-11-19T15:41:29;12.70;1.00
14769;DHT22;7476;49.404;11.152;2023-11-19T15:43:57;12.70;1.00
14769;DHT22;7476;49.404;11.152;2023-11-19T15:46:23;12.60;1.00
14769;DHT22;7476;49.404;11.152;2023-11-19T15:48:50;12.40;99.90
14769;DHT22;7476;49.404;11.152;2023-11-19T15:51:17;12.30;99.90
14769;DHT22;7476;49.404;11.152;2023-11-19T15:53:44;12.40;1.00